Terminal Aerodrome Forecast
Issued by NWS Lake Charles, LA

Home | Current Version | Previous Version | Text Only | Print | Product List | Glossary On
Versions: 1 2 3 4 5 6 7 8 9 10 11 12 13 14 15 16 17 18 19 20 21 22 23 24 25 26 27 28
000
FTUS44 KLCH 211724
TAFLCH
TAF
KLCH 211724Z 2118/2218 VRB05KT P6SM VCTS SCT025CB BKN040
     FM212000 29006KT P6SM SCT050
     FM220600 33004KT 4SM BR SCT008
      TEMPO 2208/2212 1SM BR BKN003
     FM221500 36006KT P6SM SCT020=

USA.gov is the U.S. government's official web portal to all federal, state and local government web resources and services.